sensor_id;sensor_type;location;lat;lon;timestamp;P1;durP1;ratioP1;P2;durP2;ratioP2
10029;SDS011;5055;52.054;8.524;2023-02-15T00:02:07;0.47;;;0.47;;
10029;SDS011;5055;52.054;8.524;2023-02-15T00:04:35;0.50;;;0.50;;
10029;SDS011;5055;52.054;8.524;2023-02-15T00:07:18;0.40;;;0.40;;
10029;SDS011;5055;52.054;8.524;2023-02-15T00:09:47;0.50;;;0.50;;
10029;SDS011;5055;52.054;8.524;2023-02-15T00:12:15;0.40;;;0.40;;
10029;SDS011;5055;52.054;8.524;2023-02-15T00:14:43;0.40;;;0.40;;
10029;SDS011;5055;52.054;8.524;2023-02-15T00:17:11;0.50;;;0.50;;
10029;SDS011;5055;52.054;8.524;2023-02-15T00:19:40;0.47;;;0.47;;
10029;SDS011;5055;52.054;8.524;2023-02-15T00:22:08;0.73;;;0.73;;
10029;SDS011;5055;52.054;8.524;2023-02-15T00:24:38;0.53;;;0.53;;
10029;SDS011;5055;52.054;8.524;2023-02-15T00:27:06;0.40;;;0.40;;
10029;SDS011;5055;52.054;8.524;2023-02-15T00:29:35;0.50;;;0.50;;
10029;SDS011;5055;52.054;8.524;2023-02-15T00:32:03;0.60;;;0.60;;
10029;SDS011;5055;52.054;8.524;2023-02-15T00:34:32;0.50;;;0.50;;
10029;SDS011;5055;52.054;8.524;2023-02-15T00:37:00;0.50;;;0.50;;
10029;SDS011;5055;52.054;8.524;2023-02-15T00:39:29;0.30;;;0.30;;
10029;SDS011;5055;52.054;8.524;2023-02-15T00:41:58;0.60;;;0.60;;
10029;SDS011;5055;52.054;8.524;2023-02-15T00:44:26;0.63;;;0.63;;
10029;SDS011;5055;52.054;8.524;2023-02-15T00:46:54;0.50;;;0.50;;
10029;SDS011;5055;52.054;8.524;2023-02-15T00:49:23;0.50;;;0.50;;
10029;SDS011;5055;52.054;8.524;2023-02-15T00:51:51;0.60;;;0.60;;
10029;SDS011;5055;52.054;8.524;2023-02-15T00:54:19;0.60;;;0.60;;
10029;SDS011;5055;52.054;8.524;2023-02-15T00:56:47;0.47;;;0.47;;
10029;SDS011;5055;52.054;8.524;2023-02-15T00:59:17;0.40;;;0.40;;
10029;SDS011;5055;52.054;8.524;2023-02-15T01:01:45;0.90;;;0.90;;
10029;SDS011;5055;52.054;8.524;2023-02-15T01:04:13;0.40;;;0.40;;
10029;SDS011;5055;52.054;8.524;2023-02-15T01:06:41;0.60;;;0.60;;
10029;SDS011;5055;52.054;8.524;2023-02-15T01:09:09;0.40;;;0.40;;
10029;SDS011;5055;52.054;8.524;2023-02-15T01:11:39;0.53;;;0.53;;
10029;SDS011;5055;52.054;8.524;2023-02-15T01:14:07;0.60;;;0.60;;
10029;SDS011;5055;52.054;8.524;2023-02-15T01:16:37;0.50;;;0.50;;
10029;SDS011;5055;52.054;8.524;2023-02-15T01:19:05;0.60;;;0.60;;
10029;SDS011;5055;52.054;8.524;2023-02-15T01:21:33;0.50;;;0.50;;
10029;SDS011;5055;52.054;8.524;2023-02-15T01:24:01;0.40;;;0.40;;
10029;SDS011;5055;52.054;8.524;2023-02-15T01:26:30;0.40;;;0.40;;
10029;SDS011;5055;52.054;8.524;2023-02-15T01:28:58;0.40;;;0.40;;
10029;SDS011;5055;52.054;8.524;2023-02-15T01:31:26;0.40;;;0.40;;
10029;SDS011;5055;52.054;8.524;2023-02-15T01:33:55;0.60;;;0.60;;
10029;SDS011;5055;52.054;8.524;2023-02-15T01:36:24;0.60;;;0.60;;
10029;SDS011;5055;52.054;8.524;2023-02-15T01:38:52;0.40;;;0.40;;
10029;SDS011;5055;52.054;8.524;2023-02-15T01:41:20;0.30;;;0.30;;
10029;SDS011;5055;52.054;8.524;2023-02-15T01:43:51;0.50;;;0.50;;
10029;SDS011;5055;52.054;8.524;2023-02-15T01:46:22;0.50;;;0.50;;
10029;SDS011;5055;52.054;8.524;2023-02-15T01:48:56;0.60;;;0.60;;
10029;SDS011;5055;52.054;8.524;2023-02-15T01:51:29;0.90;;;0.90;;
10029;SDS011;5055;52.054;8.524;2023-02-15T01:54:01;0.50;;;0.50;;
10029;SDS011;5055;52.054;8.524;2023-02-15T01:56:35;0.43;;;0.43;;
10029;SDS011;5055;52.054;8.524;2023-02-15T01:59:06;0.50;;;0.50;;
10029;SDS011;5055;52.054;8.524;2023-02-15T02:01:37;0.73;;;0.73;;
10029;SDS011;5055;52.054;8.524;2023-02-15T02:04:08;0.53;;;0.53;;
10029;SDS011;5055;52.054;8.524;2023-02-15T02:06:40;0.77;;;0.77;;
10029;SDS011;5055;52.054;8.524;2023-02-15T02:09:09;0.50;;;0.50;;
10029;SDS011;5055;52.054;8.524;2023-02-15T02:11:37;0.60;;;0.60;;
10029;SDS011;5055;52.054;8.524;2023-02-15T02:14:07;0.70;;;0.70;;
10029;SDS011;5055;52.054;8.524;2023-02-15T02:16:38;0.60;;;0.60;;
10029;SDS011;5055;52.054;8.524;2023-02-15T02:19:26;0.50;;;0.50;;
10029;SDS011;5055;52.054;8.524;2023-02-15T02:25:30;0.53;;;0.53;;
10029;SDS011;5055;52.054;8.524;2023-02-15T02:28:29;0.50;;;0.50;;
10029;SDS011;5055;52.054;8.524;2023-02-15T02:31:27;0.43;;;0.43;;
10029;SDS011;5055;52.054;8.524;2023-02-15T02:34:07;0.50;;;0.50;;
10029;SDS011;5055;52.054;8.524;2023-02-15T02:36:40;0.70;;;0.70;;
10029;SDS011;5055;52.054;8.524;2023-02-15T02:39:18;0.40;;;0.40;;
10029;SDS011;5055;52.054;8.524;2023-02-15T02:41:55;0.50;;;0.50;;
10029;SDS011;5055;52.054;8.524;2023-02-15T02:44:29;0.80;;;0.80;;
10029;SDS011;5055;52.054;8.524;2023-02-15T02:47:06;0.43;;;0.43;;
10029;SDS011;5055;52.054;8.524;2023-02-15T02:49:38;0.40;;;0.40;;
10029;SDS011;5055;52.054;8.524;2023-02-15T02:55:06;0.53;;;0.53;;
10029;SDS011;5055;52.054;8.524;2023-02-15T02:57:37;0.60;;;0.60;;
10029;SDS011;5055;52.054;8.524;2023-02-15T03:00:11;0.63;;;0.63;;
10029;SDS011;5055;52.054;8.524;2023-02-15T03:02:42;0.67;;;0.67;;
10029;SDS011;5055;52.054;8.524;2023-02-15T03:05:18;0.70;;;0.70;;
10029;SDS011;5055;52.054;8.524;2023-02-15T03:07:50;0.50;;;0.50;;
10029;SDS011;5055;52.054;8.524;2023-02-15T03:10:21;0.70;;;0.70;;
10029;SDS011;5055;52.054;8.524;2023-02-15T03:12:51;0.67;;;0.67;;
10029;SDS011;5055;52.054;8.524;2023-02-15T03:15:20;0.60;;;0.60;;
10029;SDS011;5055;52.054;8.524;2023-02-15T03:17:52;0.50;;;0.50;;
10029;SDS011;5055;52.054;8.524;2023-02-15T03:20:26;0.73;;;0.73;;
10029;SDS011;5055;52.054;8.524;2023-02-15T03:22:57;0.63;;;0.63;;
10029;SDS011;5055;52.054;8.524;2023-02-15T03:25:30;0.50;;;0.50;;
10029;SDS011;5055;52.054;8.524;2023-02-15T03:28:01;1.07;;;1.07;;
10029;SDS011;5055;52.054;8.524;2023-02-15T03:30:33;0.70;;;0.70;;
10029;SDS011;5055;52.054;8.524;2023-02-15T03:33:04;0.50;;;0.50;;
10029;SDS011;5055;52.054;8.524;2023-02-15T03:35:36;0.40;;;0.40;;
10029;SDS011;5055;52.054;8.524;2023-02-15T03:38:11;0.60;;;0.60;;
10029;SDS011;5055;52.054;8.524;2023-02-15T03:40:47;0.60;;;0.60;;
10029;SDS011;5055;52.054;8.524;2023-02-15T03:43:35;0.50;;;0.50;;
10029;SDS011;5055;52.054;8.524;2023-02-15T03:46:11;0.60;;;0.60;;
10029;SDS011;5055;52.054;8.524;2023-02-15T03:48:45;0.60;;;0.60;;
10029;SDS011;5055;52.054;8.524;2023-02-15T03:51:20;0.70;;;0.70;;
10029;SDS011;5055;52.054;8.524;2023-02-15T03:54:01;0.70;;;0.70;;
10029;SDS011;5055;52.054;8.524;2023-02-15T03:56:33;0.70;;;0.70;;
10029;SDS011;5055;52.054;8.524;2023-02-15T03:59:03;0.70;;;0.70;;
10029;SDS011;5055;52.054;8.524;2023-02-15T04:01:52;0.67;;;0.67;;
10029;SDS011;5055;52.054;8.524;2023-02-15T04:04:32;0.57;;;0.57;;
10029;SDS011;5055;52.054;8.524;2023-02-15T04:07:04;0.40;;;0.40;;
10029;SDS011;5055;52.054;8.524;2023-02-15T04:09:35;0.80;;;0.80;;
10029;SDS011;5055;52.054;8.524;2023-02-15T04:12:21;0.97;;;0.97;;
10029;SDS011;5055;52.054;8.524;2023-02-15T04:14:49;0.60;;;0.60;;
10029;SDS011;5055;52.054;8.524;2023-02-15T04:17:35;0.47;;;0.47;;
10029;SDS011;5055;52.054;8.524;2023-02-15T04:20:04;0.60;;;0.60;;
10029;SDS011;5055;52.054;8.524;2023-02-15T04:22:52;0.60;;;0.60;;
10029;SDS011;5055;52.054;8.524;2023-02-15T04:25:37;0.40;;;0.40;;
10029;SDS011;5055;52.054;8.524;2023-02-15T04:28:06;0.40;;;0.40;;
10029;SDS011;5055;52.054;8.524;2023-02-15T04:30:34;0.60;;;0.60;;
10029;SDS011;5055;52.054;8.524;2023-02-15T04:33:02;0.50;;;0.50;;
10029;SDS011;5055;52.054;8.524;2023-02-15T04:35:30;0.40;;;0.40;;
10029;SDS011;5055;52.054;8.524;2023-02-15T04:38:01;0.57;;;0.57;;
10029;SDS011;5055;52.054;8.524;2023-02-15T04:40:29;0.50;;;0.50;;
10029;SDS011;5055;52.054;8.524;2023-02-15T04:42:57;0.60;;;0.60;;
10029;SDS011;5055;52.054;8.524;2023-02-15T04:45:25;0.40;;;0.40;;
10029;SDS011;5055;52.054;8.524;2023-02-15T04:47:54;0.53;;;0.53;;
10029;SDS011;5055;52.054;8.524;2023-02-15T04:50:22;0.40;;;0.40;;
10029;SDS011;5055;52.054;8.524;2023-02-15T04:52:50;0.40;;;0.40;;
10029;SDS011;5055;52.054;8.524;2023-02-15T04:55:20;0.57;;;0.57;;
10029;SDS011;5055;52.054;8.524;2023-02-15T04:57:48;0.57;;;0.57;;
10029;SDS011;5055;52.054;8.524;2023-02-15T05:00:17;0.73;;;0.73;;
10029;SDS011;5055;52.054;8.524;2023-02-15T05:02:46;1.00;;;1.00;;
10029;SDS011;5055;52.054;8.524;2023-02-15T05:05:14;0.40;;;0.40;;
10029;SDS011;5055;52.054;8.524;2023-02-15T05:07:42;0.40;;;0.40;;
10029;SDS011;5055;52.054;8.524;2023-02-15T05:10:10;0.80;;;0.80;;
10029;SDS011;5055;52.054;8.524;2023-02-15T05:12:40;0.63;;;0.63;;
10029;SDS011;5055;52.054;8.524;2023-02-15T05:15:08;0.40;;;0.40;;
10029;SDS011;5055;52.054;8.524;2023-02-15T05:17:36;0.77;;;0.77;;
10029;SDS011;5055;52.054;8.524;2023-02-15T05:20:05;0.57;;;0.57;;
10029;SDS011;5055;52.054;8.524;2023-02-15T05:22:34;0.70;;;0.70;;
10029;SDS011;5055;52.054;8.524;2023-02-15T05:25:02;0.60;;;0.60;;
10029;SDS011;5055;52.054;8.524;2023-02-15T05:27:48;0.40;;;0.40;;
10029;SDS011;5055;52.054;8.524;2023-02-15T05:30:34;0.43;;;0.43;;
10029;SDS011;5055;52.054;8.524;2023-02-15T05:33:03;0.80;;;0.80;;
10029;SDS011;5055;52.054;8.524;2023-02-15T05:35:31;0.50;;;0.50;;
10029;SDS011;5055;52.054;8.524;2023-02-15T05:37:59;0.40;;;0.40;;
10029;SDS011;5055;52.054;8.524;2023-02-15T05:40:27;0.67;;;0.67;;
10029;SDS011;5055;52.054;8.524;2023-02-15T05:42:57;0.40;;;0.40;;
10029;SDS011;5055;52.054;8.524;2023-02-15T05:45:25;0.53;;;0.53;;
10029;SDS011;5055;52.054;8.524;2023-02-15T05:47:53;0.50;;;0.50;;
10029;SDS011;5055;52.054;8.524;2023-02-15T05:50:24;0.50;;;0.50;;
10029;SDS011;5055;52.054;8.524;2023-02-15T05:52:52;0.60;;;0.60;;
10029;SDS011;5055;52.054;8.524;2023-02-15T05:55:20;0.50;;;0.50;;
10029;SDS011;5055;52.054;8.524;2023-02-15T05:57:48;0.20;;;0.20;;
10029;SDS011;5055;52.054;8.524;2023-02-15T06:00:18;0.50;;;0.50;;
10029;SDS011;5055;52.054;8.524;2023-02-15T06:02:46;0.63;;;0.63;;
10029;SDS011;5055;52.054;8.524;2023-02-15T06:05:15;0.43;;;0.43;;
10029;SDS011;5055;52.054;8.524;2023-02-15T06:07:43;0.47;;;0.47;;
10029;SDS011;5055;52.054;8.524;2023-02-15T06:10:11;0.50;;;0.50;;
10029;SDS011;5055;52.054;8.524;2023-02-15T06:12:40;1.00;;;1.00;;
10029;SDS011;5055;52.054;8.524;2023-02-15T06:15:08;0.40;;;0.40;;
10029;SDS011;5055;52.054;8.524;2023-02-15T06:17:38;0.60;;;0.60;;
10029;SDS011;5055;52.054;8.524;2023-02-15T06:20:09;0.40;;;0.40;;
10029;SDS011;5055;52.054;8.524;2023-02-15T06:22:38;0.50;;;0.50;;
10029;SDS011;5055;52.054;8.524;2023-02-15T06:25:06;0.60;;;0.60;;
10029;SDS011;5055;52.054;8.524;2023-02-15T06:27:36;0.50;;;0.50;;
10029;SDS011;5055;52.054;8.524;2023-02-15T06:30:05;0.40;;;0.40;;
10029;SDS011;5055;52.054;8.524;2023-02-15T06:32:34;0.60;;;0.60;;
10029;SDS011;5055;52.054;8.524;2023-02-15T06:35:04;0.40;;;0.40;;
10029;SDS011;5055;52.054;8.524;2023-02-15T06:37:33;0.50;;;0.50;;
10029;SDS011;5055;52.054;8.524;2023-02-15T06:40:01;0.40;;;0.40;;
10029;SDS011;5055;52.054;8.524;2023-02-15T06:42:30;0.53;;;0.53;;
10029;SDS011;5055;52.054;8.524;2023-02-15T06:44:58;0.70;;;0.70;;
10029;SDS011;5055;52.054;8.524;2023-02-15T06:47:26;0.30;;;0.30;;
10029;SDS011;5055;52.054;8.524;2023-02-15T06:49:54;0.30;;;0.30;;
10029;SDS011;5055;52.054;8.524;2023-02-15T06:52:25;0.60;;;0.60;;
10029;SDS011;5055;52.054;8.524;2023-02-15T06:54:53;0.60;;;0.60;;
10029;SDS011;5055;52.054;8.524;2023-02-15T06:57:21;0.40;;;0.40;;
10029;SDS011;5055;52.054;8.524;2023-02-15T06:59:49;0.30;;;0.30;;
10029;SDS011;5055;52.054;8.524;2023-02-15T07:02:19;0.50;;;0.50;;
10029;SDS011;5055;52.054;8.524;2023-02-15T07:04:47;0.50;;;0.50;;
10029;SDS011;5055;52.054;8.524;2023-02-15T07:07:15;0.60;;;0.60;;
10029;SDS011;5055;52.054;8.524;2023-02-15T07:09:44;0.50;;;0.50;;
10029;SDS011;5055;52.054;8.524;2023-02-15T07:12:12;0.60;;;0.60;;
10029;SDS011;5055;52.054;8.524;2023-02-15T07:14:58;0.53;;;0.53;;
10029;SDS011;5055;52.054;8.524;2023-02-15T07:17:26;0.50;;;0.50;;
10029;SDS011;5055;52.054;8.524;2023-02-15T07:20:03;0.30;;;0.30;;
10029;SDS011;5055;52.054;8.524;2023-02-15T07:22:34;0.33;;;0.33;;
10029;SDS011;5055;52.054;8.524;2023-02-15T07:25:04;0.67;;;0.67;;
10029;SDS011;5055;52.054;8.524;2023-02-15T07:27:33;0.33;;;0.33;;
10029;SDS011;5055;52.054;8.524;2023-02-15T07:30:01;0.50;;;0.50;;
10029;SDS011;5055;52.054;8.524;2023-02-15T07:32:32;0.53;;;0.53;;
10029;SDS011;5055;52.054;8.524;2023-02-15T07:35:00;0.50;;;0.50;;
10029;SDS011;5055;52.054;8.524;2023-02-15T07:37:28;0.43;;;0.43;;
10029;SDS011;5055;52.054;8.524;2023-02-15T07:39:56;0.60;;;0.60;;
10029;SDS011;5055;52.054;8.524;2023-02-15T07:42:26;0.90;;;0.90;;
10029;SDS011;5055;52.054;8.524;2023-02-15T07:44:54;0.30;;;0.30;;
10029;SDS011;5055;52.054;8.524;2023-02-15T07:47:22;0.30;;;0.30;;
10029;SDS011;5055;52.054;8.524;2023-02-15T07:49:50;0.40;;;0.40;;
10029;SDS011;5055;52.054;8.524;2023-02-15T07:52:18;0.40;;;0.40;;
10029;SDS011;5055;52.054;8.524;2023-02-15T07:54:46;0.43;;;0.43;;
10029;SDS011;5055;52.054;8.524;2023-02-15T07:57:14;0.40;;;0.40;;
10029;SDS011;5055;52.054;8.524;2023-02-15T07:59:44;0.40;;;0.40;;
10029;SDS011;5055;52.054;8.524;2023-02-15T08:02:12;0.30;;;0.30;;
10029;SDS011;5055;52.054;8.524;2023-02-15T08:04:43;0.60;;;0.60;;
10029;SDS011;5055;52.054;8.524;2023-02-15T08:07:11;0.40;;;0.40;;
10029;SDS011;5055;52.054;8.524;2023-02-15T08:09:40;0.40;;;0.40;;
10029;SDS011;5055;52.054;8.524;2023-02-15T08:12:08;0.60;;;0.60;;
10029;SDS011;5055;52.054;8.524;2023-02-15T08:14:36;0.50;;;0.50;;
10029;SDS011;5055;52.054;8.524;2023-02-15T08:17:06;0.50;;;0.50;;
10029;SDS011;5055;52.054;8.524;2023-02-15T08:19:34;0.43;;;0.43;;
10029;SDS011;5055;52.054;8.524;2023-02-15T08:22:03;0.40;;;0.40;;
10029;SDS011;5055;52.054;8.524;2023-02-15T08:24:33;0.40;;;0.40;;
10029;SDS011;5055;52.054;8.524;2023-02-15T08:27:03;0.47;;;0.47;;
10029;SDS011;5055;52.054;8.524;2023-02-15T08:29:32;0.40;;;0.40;;
10029;SDS011;5055;52.054;8.524;2023-02-15T08:32:02;0.57;;;0.57;;
10029;SDS011;5055;52.054;8.524;2023-02-15T08:34:34;0.30;;;0.30;;
10029;SDS011;5055;52.054;8.524;2023-02-15T08:37:04;0.40;;;0.40;;
10029;SDS011;5055;52.054;8.524;2023-02-15T08:39:32;0.50;;;0.50;;
10029;SDS011;5055;52.054;8.524;2023-02-15T08:42:01;0.40;;;0.40;;
10029;SDS011;5055;52.054;8.524;2023-02-15T08:44:29;0.70;;;0.70;;
10029;SDS011;5055;52.054;8.524;2023-02-15T08:46:57;0.70;;;0.70;;
10029;SDS011;5055;52.054;8.524;2023-02-15T08:49:30;0.40;;;0.40;;
10029;SDS011;5055;52.054;8.524;2023-02-15T08:51:59;0.60;;;0.60;;
10029;SDS011;5055;52.054;8.524;2023-02-15T08:54:27;0.47;;;0.47;;
10029;SDS011;5055;52.054;8.524;2023-02-15T08:56:55;0.50;;;0.50;;
10029;SDS011;5055;52.054;8.524;2023-02-15T08:59:24;0.30;;;0.30;;
10029;SDS011;5055;52.054;8.524;2023-02-15T09:01:53;0.40;;;0.40;;
10029;SDS011;5055;52.054;8.524;2023-02-15T09:04:22;0.40;;;0.40;;
10029;SDS011;5055;52.054;8.524;2023-02-15T09:06:50;0.40;;;0.40;;
10029;SDS011;5055;52.054;8.524;2023-02-15T09:09:20;0.40;;;0.40;;
10029;SDS011;5055;52.054;8.524;2023-02-15T09:11:49;0.30;;;0.30;;
10029;SDS011;5055;52.054;8.524;2023-02-15T09:14:24;0.30;;;0.30;;
10029;SDS011;5055;52.054;8.524;2023-02-15T09:16:53;0.40;;;0.40;;
10029;SDS011;5055;52.054;8.524;2023-02-15T09:19:22;0.40;;;0.40;;
10029;SDS011;5055;52.054;8.524;2023-02-15T09:21:51;0.67;;;0.67;;
10029;SDS011;5055;52.054;8.524;2023-02-15T09:24:20;0.60;;;0.60;;
10029;SDS011;5055;52.054;8.524;2023-02-15T09:26:49;0.50;;;0.50;;
10029;SDS011;5055;52.054;8.524;2023-02-15T09:29:18;0.43;;;0.43;;
10029;SDS011;5055;52.054;8.524;2023-02-15T09:31:46;0.40;;;0.40;;
10029;SDS011;5055;52.054;8.524;2023-02-15T09:34:17;0.40;;;0.40;;
10029;SDS011;5055;52.054;8.524;2023-02-15T09:36:46;0.40;;;0.40;;
10029;SDS011;5055;52.054;8.524;2023-02-15T09:39:15;0.40;;;0.40;;
10029;SDS011;5055;52.054;8.524;2023-02-15T09:41:53;0.40;;;0.40;;
10029;SDS011;5055;52.054;8.524;2023-02-15T09:44:54;0.30;;;0.30;;
10029;SDS011;5055;52.054;8.524;2023-02-15T09:47:44;0.40;;;0.40;;
10029;SDS011;5055;52.054;8.524;2023-02-15T09:50:37;0.30;;;0.30;;
10029;SDS011;5055;52.054;8.524;2023-02-15T09:53:18;0.30;;;0.30;;
10029;SDS011;5055;52.054;8.524;2023-02-15T09:55:57;0.50;;;0.50;;
10029;SDS011;5055;52.054;8.524;2023-02-15T09:58:33;0.30;;;0.30;;
10029;SDS011;5055;52.054;8.524;2023-02-15T10:01:11;0.30;;;0.30;;
10029;SDS011;5055;52.054;8.524;2023-02-15T10:03:50;0.60;;;0.60;;
10029;SDS011;5055;52.054;8.524;2023-02-15T10:06:35;0.30;;;0.30;;
10029;SDS011;5055;52.054;8.524;2023-02-15T10:12:12;0.30;;;0.30;;
10029;SDS011;5055;52.054;8.524;2023-02-15T10:15:13;0.37;;;0.37;;
10029;SDS011;5055;52.054;8.524;2023-02-15T10:17:54;0.30;;;0.30;;
10029;SDS011;5055;52.054;8.524;2023-02-15T10:20:46;0.40;;;0.40;;
10029;SDS011;5055;52.054;8.524;2023-02-15T10:26:26;0.30;;;0.30;;
10029;SDS011;5055;52.054;8.524;2023-02-15T10:28:59;0.30;;;0.30;;
10029;SDS011;5055;52.054;8.524;2023-02-15T10:31:37;0.30;;;0.30;;
10029;SDS011;5055;52.054;8.524;2023-02-15T10:34:15;0.30;;;0.30;;
10029;SDS011;5055;52.054;8.524;2023-02-15T10:36:52;0.30;;;0.30;;
10029;SDS011;5055;52.054;8.524;2023-02-15T10:39:38;0.30;;;0.30;;
10029;SDS011;5055;52.054;8.524;2023-02-15T10:42:15;0.30;;;0.30;;
10029;SDS011;5055;52.054;8.524;2023-02-15T10:45:04;0.33;;;0.33;;
10029;SDS011;5055;52.054;8.524;2023-02-15T10:47:54;0.40;;;0.40;;
10029;SDS011;5055;52.054;8.524;2023-02-15T10:50:42;0.30;;;0.30;;
10029;SDS011;5055;52.054;8.524;2023-02-15T10:53:24;0.20;;;0.20;;
10029;SDS011;5055;52.054;8.524;2023-02-15T10:56:03;0.30;;;0.30;;
10029;SDS011;5055;52.054;8.524;2023-02-15T10:58:44;0.40;;;0.40;;
10029;SDS011;5055;52.054;8.524;2023-02-15T11:01:24;0.30;;;0.30;;
10029;SDS011;5055;52.054;8.524;2023-02-15T11:04:27;0.30;;;0.30;;
10029;SDS011;5055;52.054;8.524;2023-02-15T11:07:08;0.30;;;0.30;;
10029;SDS011;5055;52.054;8.524;2023-02-15T11:09:44;0.30;;;0.30;;
10029;SDS011;5055;52.054;8.524;2023-02-15T11:12:17;0.37;;;0.37;;
10029;SDS011;5055;52.054;8.524;2023-02-15T11:14:49;0.30;;;0.30;;
10029;SDS011;5055;52.054;8.524;2023-02-15T11:17:22;0.30;;;0.30;;
10029;SDS011;5055;52.054;8.524;2023-02-15T11:19:58;0.30;;;0.30;;
10029;SDS011;5055;52.054;8.524;2023-02-15T11:22:32;0.30;;;0.30;;
10029;SDS011;5055;52.054;8.524;2023-02-15T11:25:01;0.37;;;0.37;;
10029;SDS011;5055;52.054;8.524;2023-02-15T11:27:42;0.30;;;0.30;;
10029;SDS011;5055;52.054;8.524;2023-02-15T11:30:15;0.30;;;0.30;;
10029;SDS011;5055;52.054;8.524;2023-02-15T11:32:46;0.30;;;0.30;;
10029;SDS011;5055;52.054;8.524;2023-02-15T11:35:19;0.40;;;0.40;;
10029;SDS011;5055;52.054;8.524;2023-02-15T11:37:53;0.30;;;0.30;;
10029;SDS011;5055;52.054;8.524;2023-02-15T11:40:26;0.30;;;0.30;;
10029;SDS011;5055;52.054;8.524;2023-02-15T11:42:58;0.20;;;0.20;;
10029;SDS011;5055;52.054;8.524;2023-02-15T11:45:31;0.30;;;0.30;;
10029;SDS011;5055;52.054;8.524;2023-02-15T11:48:00;0.30;;;0.30;;
10029;SDS011;5055;52.054;8.524;2023-02-15T11:50:37;0.30;;;0.30;;
10029;SDS011;5055;52.054;8.524;2023-02-15T11:53:09;0.30;;;0.30;;
10029;SDS011;5055;52.054;8.524;2023-02-15T11:55:41;0.30;;;0.30;;
10029;SDS011;5055;52.054;8.524;2023-02-15T11:58:12;0.40;;;0.40;;
10029;SDS011;5055;52.054;8.524;2023-02-15T12:00:50;0.40;;;0.40;;
10029;SDS011;5055;52.054;8.524;2023-02-15T12:03:24;0.33;;;0.33;;
10029;SDS011;5055;52.054;8.524;2023-02-15T12:06:03;0.33;;;0.33;;
10029;SDS011;5055;52.054;8.524;2023-02-15T12:08:34;0.37;;;0.37;;
10029;SDS011;5055;52.054;8.524;2023-02-15T12:11:06;0.30;;;0.30;;
10029;SDS011;5055;52.054;8.524;2023-02-15T12:13:53;0.27;;;0.27;;
10029;SDS011;5055;52.054;8.524;2023-02-15T12:16:23;0.30;;;0.30;;
10029;SDS011;5055;52.054;8.524;2023-02-15T12:18:52;0.20;;;0.20;;
10029;SDS011;5055;52.054;8.524;2023-02-15T12:21:27;0.30;;;0.30;;
10029;SDS011;5055;52.054;8.524;2023-02-15T12:24:00;0.30;;;0.30;;
10029;SDS011;5055;52.054;8.524;2023-02-15T12:26:36;0.40;;;0.40;;
10029;SDS011;5055;52.054;8.524;2023-02-15T12:29:06;0.27;;;0.27;;
10029;SDS011;5055;52.054;8.524;2023-02-15T12:31:43;0.40;;;0.40;;
10029;SDS011;5055;52.054;8.524;2023-02-15T12:34:16;0.30;;;0.30;;
10029;SDS011;5055;52.054;8.524;2023-02-15T12:36:51;0.30;;;0.30;;
10029;SDS011;5055;52.054;8.524;2023-02-15T12:39:25;0.30;;;0.30;;
10029;SDS011;5055;52.054;8.524;2023-02-15T12:41:58;0.30;;;0.30;;
10029;SDS011;5055;52.054;8.524;2023-02-15T12:44:30;0.20;;;0.20;;
10029;SDS011;5055;52.054;8.524;2023-02-15T12:47:00;0.30;;;0.30;;
10029;SDS011;5055;52.054;8.524;2023-02-15T12:49:31;0.20;;;0.20;;
10029;SDS011;5055;52.054;8.524;2023-02-15T12:52:02;0.30;;;0.30;;
10029;SDS011;5055;52.054;8.524;2023-02-15T12:54:38;0.20;;;0.20;;
10029;SDS011;5055;52.054;8.524;2023-02-15T12:59:57;0.20;;;0.20;;
10029;SDS011;5055;52.054;8.524;2023-02-15T13:02:29;0.17;;;0.17;;
10029;SDS011;5055;52.054;8.524;2023-02-15T13:05:10;0.20;;;0.20;;
10029;SDS011;5055;52.054;8.524;2023-02-15T13:07:47;0.20;;;0.20;;
10029;SDS011;5055;52.054;8.524;2023-02-15T13:10:25;0.20;;;0.20;;
10029;SDS011;5055;52.054;8.524;2023-02-15T13:12:56;0.10;;;0.10;;
10029;SDS011;5055;52.054;8.524;2023-02-15T13:15:25;0.20;;;0.20;;
10029;SDS011;5055;52.054;8.524;2023-02-15T13:17:58;0.20;;;0.20;;
10029;SDS011;5055;52.054;8.524;2023-02-15T13:20:28;0.20;;;0.20;;
10029;SDS011;5055;52.054;8.524;2023-02-15T13:22:59;0.10;;;0.10;;
10029;SDS011;5055;52.054;8.524;2023-02-15T13:25:32;0.10;;;0.10;;
10029;SDS011;5055;52.054;8.524;2023-02-15T13:28:16;0.10;;;0.10;;
10029;SDS011;5055;52.054;8.524;2023-02-15T13:30:49;0.10;;;0.10;;
10029;SDS011;5055;52.054;8.524;2023-02-15T13:33:20;0.10;;;0.10;;
10029;SDS011;5055;52.054;8.524;2023-02-15T13:35:56;0.10;;;0.10;;
10029;SDS011;5055;52.054;8.524;2023-02-15T13:38:44;0.10;;;0.10;;
10029;SDS011;5055;52.054;8.524;2023-02-15T13:41:17;0.10;;;0.10;;
10029;SDS011;5055;52.054;8.524;2023-02-15T13:43:52;0.20;;;0.20;;
10029;SDS011;5055;52.054;8.524;2023-02-15T13:49:31;0.10;;;0.10;;
10029;SDS011;5055;52.054;8.524;2023-02-15T13:52:13;0.20;;;0.20;;
10029;SDS011;5055;52.054;8.524;2023-02-15T13:54:55;0.20;;;0.20;;
10029;SDS011;5055;52.054;8.524;2023-02-15T13:57:38;0.10;;;0.10;;
10029;SDS011;5055;52.054;8.524;2023-02-15T14:00:15;0.10;;;0.10;;
10029;SDS011;5055;52.054;8.524;2023-02-15T14:05:57;0.10;;;0.10;;
10029;SDS011;5055;52.054;8.524;2023-02-15T14:08:54;0.20;;;0.20;;
10029;SDS011;5055;52.054;8.524;2023-02-15T14:11:35;0.20;;;0.20;;
10029;SDS011;5055;52.054;8.524;2023-02-15T14:14:15;0.20;;;0.20;;
10029;SDS011;5055;52.054;8.524;2023-02-15T14:17:00;0.13;;;0.13;;
10029;SDS011;5055;52.054;8.524;2023-02-15T14:19:35;0.17;;;0.17;;
10029;SDS011;5055;52.054;8.524;2023-02-15T14:22:14;0.10;;;0.10;;
10029;SDS011;5055;52.054;8.524;2023-02-15T14:24:51;0.20;;;0.20;;
10029;SDS011;5055;52.054;8.524;2023-02-15T14:27:36;0.10;;;0.10;;
10029;SDS011;5055;52.054;8.524;2023-02-15T14:30:14;0.10;;;0.10;;
10029;SDS011;5055;52.054;8.524;2023-02-15T14:32:47;0.10;;;0.10;;
10029;SDS011;5055;52.054;8.524;2023-02-15T14:35:19;0.10;;;0.10;;
10029;SDS011;5055;52.054;8.524;2023-02-15T14:37:50;0.10;;;0.10;;
10029;SDS011;5055;52.054;8.524;2023-02-15T14:40:28;0.10;;;0.10;;
10029;SDS011;5055;52.054;8.524;2023-02-15T14:43:23;0.17;;;0.17;;
10029;SDS011;5055;52.054;8.524;2023-02-15T14:45:59;0.20;;;0.20;;
10029;SDS011;5055;52.054;8.524;2023-02-15T14:48:31;0.10;;;0.10;;
10029;SDS011;5055;52.054;8.524;2023-02-15T14:51:05;0.20;;;0.20;;
10029;SDS011;5055;52.054;8.524;2023-02-15T14:53:37;0.10;;;0.10;;
10029;SDS011;5055;52.054;8.524;2023-02-15T14:56:16;0.10;;;0.10;;
10029;SDS011;5055;52.054;8.524;2023-02-15T14:58:58;0.10;;;0.10;;
10029;SDS011;5055;52.054;8.524;2023-02-15T15:01:40;0.10;;;0.10;;
10029;SDS011;5055;52.054;8.524;2023-02-15T15:04:10;0.20;;;0.20;;
10029;SDS011;5055;52.054;8.524;2023-02-15T15:06:41;0.10;;;0.10;;
10029;SDS011;5055;52.054;8.524;2023-02-15T15:09:11;0.20;;;0.20;;
10029;SDS011;5055;52.054;8.524;2023-02-15T15:11:46;0.20;;;0.20;;
10029;SDS011;5055;52.054;8.524;2023-02-15T15:17:10;0.20;;;0.20;;
10029;SDS011;5055;52.054;8.524;2023-02-15T15:22:40;0.20;;;0.20;;
10029;SDS011;5055;52.054;8.524;2023-02-15T15:25:11;0.20;;;0.20;;
10029;SDS011;5055;52.054;8.524;2023-02-15T15:28:00;0.20;;;0.20;;
10029;SDS011;5055;52.054;8.524;2023-02-15T15:33:46;0.20;;;0.20;;
10029;SDS011;5055;52.054;8.524;2023-02-15T15:36:41;0.20;;;0.20;;
10029;SDS011;5055;52.054;8.524;2023-02-15T15:39:43;0.30;;;0.30;;
10029;SDS011;5055;52.054;8.524;2023-02-15T15:42:50;0.20;;;0.20;;
10029;SDS011;5055;52.054;8.524;2023-02-15T15:45:39;0.30;;;0.30;;
10029;SDS011;5055;52.054;8.524;2023-02-15T15:48:32;0.30;;;0.30;;
10029;SDS011;5055;52.054;8.524;2023-02-15T15:51:05;0.30;;;0.30;;
10029;SDS011;5055;52.054;8.524;2023-02-15T15:53:40;0.27;;;0.27;;
10029;SDS011;5055;52.054;8.524;2023-02-15T15:56:14;0.30;;;0.30;;
10029;SDS011;5055;52.054;8.524;2023-02-15T15:58:47;0.30;;;0.30;;
10029;SDS011;5055;52.054;8.524;2023-02-15T16:01:20;0.30;;;0.30;;
10029;SDS011;5055;52.054;8.524;2023-02-15T16:03:55;0.30;;;0.30;;
10029;SDS011;5055;52.054;8.524;2023-02-15T16:06:26;0.20;;;0.20;;
10029;SDS011;5055;52.054;8.524;2023-02-15T16:08:56;0.30;;;0.30;;